sensor_id;sensor_type;location;lat;lon;timestamp;pressure;altitude;pressure_sealevel;temperature;humidity
64610;BME280;51019;46.090;6.350;2023-02-28T00:01:09;96667.16;;;0.31;94.00
64610;BME280;51019;46.090;6.350;2023-02-28T00:03:44;96664.09;;;0.23;94.37
64610;BME280;51019;46.090;6.350;2023-02-28T00:06:11;96663.59;;;0.33;93.89
64610;BME280;51019;46.090;6.350;2023-02-28T00:08:38;96639.31;;;0.03;94.82
64610;BME280;51019;46.090;6.350;2023-02-28T00:11:08;96664.63;;;0.12;95.55
64610;BME280;51019;46.090;6.350;2023-02-28T00:13:38;96666.03;;;0.19;94.92
64610;BME280;51019;46.090;6.350;2023-02-28T00:16:08;96660.31;;;0.13;95.29
64610;BME280;51019;46.090;6.350;2023-02-28T00:18:37;96659.28;;;-0.01;95.40
64610;BME280;51019;46.090;6.350;2023-02-28T00:21:07;96663.50;;;0.18;94.87
64610;BME280;51019;46.090;6.350;2023-02-28T00:23:37;96655.75;;;0.00;95.87
64610;BME280;51019;46.090;6.350;2023-02-28T00:26:04;96674.50;;;0.21;94.78
64610;BME280;51019;46.090;6.350;2023-02-28T00:28:32;96676.03;;;0.08;95.21
64610;BME280;51019;46.090;6.350;2023-02-28T00:31:00;96644.41;;;-0.13;95.49
64610;BME280;51019;46.090;6.350;2023-02-28T00:33:27;96675.47;;;0.02;96.02
64610;BME280;51019;46.090;6.350;2023-02-28T00:36:04;96678.75;;;0.05;96.38
64610;BME280;51019;46.090;6.350;2023-02-28T00:38:33;96672.88;;;0.02;96.56
64610;BME280;51019;46.090;6.350;2023-02-28T00:41:01;96657.50;;;-0.17;97.40
64610;BME280;51019;46.090;6.350;2023-02-28T00:43:31;96672.38;;;-0.05;97.31
64610;BME280;51019;46.090;6.350;2023-02-28T00:45:59;96681.97;;;-0.09;97.45
64610;BME280;51019;46.090;6.350;2023-02-28T00:48:27;96681.38;;;-0.14;97.96
64610;BME280;51019;46.090;6.350;2023-02-28T00:50:55;96684.09;;;-0.17;97.91
64610;BME280;51019;46.090;6.350;2023-02-28T00:53:22;96685.16;;;-0.21;98.03
64610;BME280;51019;46.090;6.350;2023-02-28T00:55:51;96688.34;;;-0.16;98.18
64610;BME280;51019;46.090;6.350;2023-02-28T00:58:19;96679.41;;;-0.09;97.76
64610;BME280;51019;46.090;6.350;2023-02-28T01:00:48;96679.25;;;-0.06;96.98
64610;BME280;51019;46.090;6.350;2023-02-28T01:03:16;96686.59;;;-0.15;97.88
64610;BME280;51019;46.090;6.350;2023-02-28T01:05:46;96683.97;;;-0.14;97.55
64610;BME280;51019;46.090;6.350;2023-02-28T01:08:13;96682.06;;;-0.10;97.53
64610;BME280;51019;46.090;6.350;2023-02-28T01:10:42;96685.88;;;0.00;96.92
64610;BME280;51019;46.090;6.350;2023-02-28T01:13:12;96634.53;;;-0.39;97.44
64610;BME280;51019;46.090;6.350;2023-02-28T01:15:43;96680.78;;;-0.02;96.35
64610;BME280;51019;46.090;6.350;2023-02-28T01:18:12;96682.53;;;-0.02;96.47
64610;BME280;51019;46.090;6.350;2023-02-28T01:20:40;96681.84;;;-0.06;97.15
64610;BME280;51019;46.090;6.350;2023-02-28T01:23:08;96668.66;;;-0.17;97.02
64610;BME280;51019;46.090;6.350;2023-02-28T01:25:36;96686.31;;;-0.09;98.06
64610;BME280;51019;46.090;6.350;2023-02-28T01:28:05;96686.38;;;-0.11;97.71
64610;BME280;51019;46.090;6.350;2023-02-28T01:30:36;96663.94;;;-0.26;98.29
64610;BME280;51019;46.090;6.350;2023-02-28T01:33:03;96649.78;;;-0.34;97.73
64610;BME280;51019;46.090;6.350;2023-02-28T01:35:32;96684.41;;;-0.23;98.27
64610;BME280;51019;46.090;6.350;2023-02-28T01:38:01;96672.84;;;-0.33;98.69
64610;BME280;51019;46.090;6.350;2023-02-28T01:40:29;96689.31;;;-0.18;98.38
64610;BME280;51019;46.090;6.350;2023-02-28T01:42:56;96683.06;;;-0.13;98.02
64610;BME280;51019;46.090;6.350;2023-02-28T02:05:37;96682.41;;;-0.35;100.00
64610;BME280;51019;46.090;6.350;2023-02-28T02:08:08;96686.78;;;-0.37;100.00
64610;BME280;51019;46.090;6.350;2023-02-28T02:10:41;96689.97;;;-0.32;100.00
64610;BME280;51019;46.090;6.350;2023-02-28T02:31:14;96666.66;;;-0.29;100.00
64610;BME280;51019;46.090;6.350;2023-02-28T02:36:47;96668.00;;;-0.39;100.00
64610;BME280;51019;46.090;6.350;2023-02-28T02:53:07;96653.75;;;-0.46;100.00
64610;BME280;51019;46.090;6.350;2023-02-28T02:55:40;96673.59;;;-0.48;100.00
64610;BME280;51019;46.090;6.350;2023-02-28T02:58:13;96672.06;;;-0.52;100.00
64610;BME280;51019;46.090;6.350;2023-02-28T03:00:46;96681.53;;;-0.53;100.00
64610;BME280;51019;46.090;6.350;2023-02-28T03:03:16;96670.13;;;-0.47;100.00
64610;BME280;51019;46.090;6.350;2023-02-28T03:05:55;96663.72;;;-0.57;100.00
64610;BME280;51019;46.090;6.350;2023-02-28T03:08:25;96660.81;;;-0.68;100.00
64610;BME280;51019;46.090;6.350;2023-02-28T03:10:57;96670.69;;;-0.59;100.00
64610;BME280;51019;46.090;6.350;2023-02-28T03:13:41;96670.75;;;-0.61;100.00
64610;BME280;51019;46.090;6.350;2023-02-28T03:16:28;96628.06;;;-0.84;100.00
64610;BME280;51019;46.090;6.350;2023-02-28T03:19:06;96666.38;;;-0.59;100.00
64610;BME280;51019;46.090;6.350;2023-02-28T03:21:41;96669.72;;;-0.57;100.00
64610;BME280;51019;46.090;6.350;2023-02-28T03:24:17;96665.53;;;-0.59;100.00
64610;BME280;51019;46.090;6.350;2023-02-28T03:26:51;96679.91;;;-0.55;100.00
64610;BME280;51019;46.090;6.350;2023-02-28T03:29:26;96681.66;;;-0.56;100.00
64610;BME280;51019;46.090;6.350;2023-02-28T03:32:01;96685.97;;;-0.56;100.00
64610;BME280;51019;46.090;6.350;2023-02-28T03:34:34;96674.09;;;-0.59;100.00
64610;BME280;51019;46.090;6.350;2023-02-28T03:37:07;96676.31;;;-0.51;100.00
64610;BME280;51019;46.090;6.350;2023-02-28T03:39:43;96664.31;;;-0.69;100.00
64610;BME280;51019;46.090;6.350;2023-02-28T03:42:14;96670.38;;;-0.53;100.00
64610;BME280;51019;46.090;6.350;2023-02-28T03:44:46;96677.28;;;-0.54;100.00
64610;BME280;51019;46.090;6.350;2023-02-28T03:47:19;96652.47;;;-0.74;100.00
64610;BME280;51019;46.090;6.350;2023-02-28T03:49:50;96674.88;;;-0.57;100.00
64610;BME280;51019;46.090;6.350;2023-02-28T03:52:22;96670.28;;;-0.69;100.00
64610;BME280;51019;46.090;6.350;2023-02-28T03:54:56;96674.22;;;-0.62;100.00
64610;BME280;51019;46.090;6.350;2023-02-28T03:57:34;96676.94;;;-0.46;100.00
64610;BME280;51019;46.090;6.350;2023-02-28T04:00:07;96670.41;;;-0.72;100.00
64610;BME280;51019;46.090;6.350;2023-02-28T04:02:36;96675.34;;;-0.67;100.00
64610;BME280;51019;46.090;6.350;2023-02-28T04:05:05;96674.44;;;-0.48;100.00
64610;BME280;51019;46.090;6.350;2023-02-28T04:07:33;96676.66;;;-0.59;100.00
64610;BME280;51019;46.090;6.350;2023-02-28T04:10:03;96673.41;;;-0.62;100.00
64610;BME280;51019;46.090;6.350;2023-02-28T04:12:30;96668.63;;;-0.70;100.00
64610;BME280;51019;46.090;6.350;2023-02-28T04:14:59;96658.75;;;-0.79;100.00
64610;BME280;51019;46.090;6.350;2023-02-28T04:17:27;96679.03;;;-0.73;100.00
64610;BME280;51019;46.090;6.350;2023-02-28T04:19:54;96669.94;;;-0.80;100.00
64610;BME280;51019;46.090;6.350;2023-02-28T04:22:23;96668.91;;;-0.95;100.00
64610;BME280;51019;46.090;6.350;2023-02-28T04:24:53;96684.53;;;-0.81;100.00
64610;BME280;51019;46.090;6.350;2023-02-28T04:27:22;96681.13;;;-0.81;100.00
64610;BME280;51019;46.090;6.350;2023-02-28T04:29:50;96681.22;;;-0.83;100.00
64610;BME280;51019;46.090;6.350;2023-02-28T04:32:17;96686.97;;;-0.78;100.00
64610;BME280;51019;46.090;6.350;2023-02-28T04:34:45;96684.47;;;-0.79;100.00
64610;BME280;51019;46.090;6.350;2023-02-28T04:37:13;96667.69;;;-0.88;100.00
64610;BME280;51019;46.090;6.350;2023-02-28T04:39:41;96680.63;;;-0.89;100.00
64610;BME280;51019;46.090;6.350;2023-02-28T04:42:08;96682.25;;;-0.87;100.00
64610;BME280;51019;46.090;6.350;2023-02-28T04:44:42;96687.19;;;-0.82;100.00
64610;BME280;51019;46.090;6.350;2023-02-28T04:47:09;96695.59;;;-0.79;100.00
64610;BME280;51019;46.090;6.350;2023-02-28T04:49:37;96697.25;;;-0.78;100.00
64610;BME280;51019;46.090;6.350;2023-02-28T04:52:04;96689.00;;;-0.84;100.00
64610;BME280;51019;46.090;6.350;2023-02-28T04:54:32;96698.09;;;-0.77;100.00
64610;BME280;51019;46.090;6.350;2023-02-28T04:57:00;96688.84;;;-0.81;100.00
64610;BME280;51019;46.090;6.350;2023-02-28T04:59:29;96675.84;;;-0.97;100.00
64610;BME280;51019;46.090;6.350;2023-02-28T05:01:59;96695.81;;;-0.83;100.00
64610;BME280;51019;46.090;6.350;2023-02-28T05:04:32;96688.78;;;-0.80;100.00
64610;BME280;51019;46.090;6.350;2023-02-28T05:07:00;96673.00;;;-0.91;100.00
64610;BME280;51019;46.090;6.350;2023-02-28T05:09:28;96688.63;;;-0.77;100.00
64610;BME280;51019;46.090;6.350;2023-02-28T05:11:56;96701.38;;;-0.74;100.00
64610;BME280;51019;46.090;6.350;2023-02-28T05:14:23;96693.00;;;-0.79;100.00
64610;BME280;51019;46.090;6.350;2023-02-28T05:16:51;96699.69;;;-0.75;100.00
64610;BME280;51019;46.090;6.350;2023-02-28T05:19:21;96702.56;;;-0.62;100.00
64610;BME280;51019;46.090;6.350;2023-02-28T05:21:50;96693.66;;;-0.74;100.00
64610;BME280;51019;46.090;6.350;2023-02-28T05:24:19;96707.06;;;-0.67;100.00
64610;BME280;51019;46.090;6.350;2023-02-28T05:26:49;96707.41;;;-0.75;100.00
64610;BME280;51019;46.090;6.350;2023-02-28T05:29:18;96715.38;;;-0.79;100.00
64610;BME280;51019;46.090;6.350;2023-02-28T05:31:45;96714.66;;;-0.83;100.00
64610;BME280;51019;46.090;6.350;2023-02-28T05:34:13;96712.91;;;-0.82;100.00
64610;BME280;51019;46.090;6.350;2023-02-28T05:36:43;96719.38;;;-0.74;100.00
64610;BME280;51019;46.090;6.350;2023-02-28T05:39:11;96669.97;;;-1.19;100.00
64610;BME280;51019;46.090;6.350;2023-02-28T05:41:41;96707.13;;;-1.06;100.00
64610;BME280;51019;46.090;6.350;2023-02-28T05:44:08;96724.81;;;-0.80;100.00
64610;BME280;51019;46.090;6.350;2023-02-28T05:46:36;96719.50;;;-0.77;100.00
64610;BME280;51019;46.090;6.350;2023-02-28T05:49:03;96614.25;;;-1.37;100.00
64610;BME280;51019;46.090;6.350;2023-02-28T05:51:31;96725.91;;;-0.66;100.00
64610;BME280;51019;46.090;6.350;2023-02-28T05:54:02;96718.19;;;-0.66;100.00
64610;BME280;51019;46.090;6.350;2023-02-28T05:56:29;96719.66;;;-0.61;100.00
64610;BME280;51019;46.090;6.350;2023-02-28T05:58:56;96722.94;;;-0.57;100.00
64610;BME280;51019;46.090;6.350;2023-02-28T06:01:51;96717.03;;;-0.59;100.00
64610;BME280;51019;46.090;6.350;2023-02-28T06:04:21;96702.00;;;-0.68;100.00
64610;BME280;51019;46.090;6.350;2023-02-28T06:06:49;96726.81;;;-0.49;100.00
64610;BME280;51019;46.090;6.350;2023-02-28T06:09:18;96726.25;;;-0.55;100.00
64610;BME280;51019;46.090;6.350;2023-02-28T06:11:45;96728.44;;;-0.46;100.00
64610;BME280;51019;46.090;6.350;2023-02-28T06:14:15;96724.34;;;-0.33;100.00
64610;BME280;51019;46.090;6.350;2023-02-28T06:16:44;96716.16;;;-0.41;100.00
64610;BME280;51019;46.090;6.350;2023-02-28T06:19:12;96732.59;;;-0.44;100.00
64610;BME280;51019;46.090;6.350;2023-02-28T06:21:40;96729.94;;;-0.42;100.00
64610;BME280;51019;46.090;6.350;2023-02-28T06:24:08;96737.81;;;-0.45;100.00
64610;BME280;51019;46.090;6.350;2023-02-28T06:26:38;96735.03;;;-0.41;100.00
64610;BME280;51019;46.090;6.350;2023-02-28T06:29:06;96736.75;;;-0.41;100.00
64610;BME280;51019;46.090;6.350;2023-02-28T06:31:34;96740.66;;;-0.32;100.00
64610;BME280;51019;46.090;6.350;2023-02-28T06:34:03;96750.53;;;-0.42;100.00
64610;BME280;51019;46.090;6.350;2023-02-28T06:36:31;96748.47;;;-0.53;100.00
64610;BME280;51019;46.090;6.350;2023-02-28T06:38:58;96754.31;;;-0.49;100.00
64610;BME280;51019;46.090;6.350;2023-02-28T06:41:26;96757.78;;;-0.50;100.00
64610;BME280;51019;46.090;6.350;2023-02-28T06:43:56;96756.75;;;-0.46;100.00
64610;BME280;51019;46.090;6.350;2023-02-28T06:46:23;96746.94;;;-0.57;100.00
64610;BME280;51019;46.090;6.350;2023-02-28T06:48:51;96760.16;;;-0.46;100.00
64610;BME280;51019;46.090;6.350;2023-02-28T06:51:19;96760.59;;;-0.36;100.00
64610;BME280;51019;46.090;6.350;2023-02-28T06:53:47;96743.88;;;-0.46;100.00
64610;BME280;51019;46.090;6.350;2023-02-28T06:56:16;96766.28;;;-0.29;100.00
64610;BME280;51019;46.090;6.350;2023-02-28T06:58:46;96759.00;;;-0.21;100.00
64610;BME280;51019;46.090;6.350;2023-02-28T07:01:16;96731.25;;;-0.33;100.00
64610;BME280;51019;46.090;6.350;2023-02-28T07:03:44;96758.19;;;-0.22;100.00
64610;BME280;51019;46.090;6.350;2023-02-28T07:06:17;96752.13;;;-0.21;100.00
64610;BME280;51019;46.090;6.350;2023-02-28T07:08:45;96745.28;;;-0.22;100.00
64610;BME280;51019;46.090;6.350;2023-02-28T07:11:13;96764.78;;;-0.16;100.00
64610;BME280;51019;46.090;6.350;2023-02-28T07:13:40;96753.78;;;-0.20;100.00
64610;BME280;51019;46.090;6.350;2023-02-28T07:16:10;96761.19;;;-0.12;100.00
64610;BME280;51019;46.090;6.350;2023-02-28T07:18:43;96776.19;;;0.33;100.00
64610;BME280;51019;46.090;6.350;2023-02-28T07:21:11;96749.63;;;0.14;100.00
64610;BME280;51019;46.090;6.350;2023-02-28T07:23:40;96770.41;;;0.11;100.00
64610;BME280;51019;46.090;6.350;2023-02-28T07:26:11;96759.41;;;0.07;100.00
64610;BME280;51019;46.090;6.350;2023-02-28T07:28:40;96764.56;;;0.24;100.00
64610;BME280;51019;46.090;6.350;2023-02-28T07:31:08;96779.63;;;-0.03;100.00
64610;BME280;51019;46.090;6.350;2023-02-28T07:33:40;96774.84;;;0.07;100.00
64610;BME280;51019;46.090;6.350;2023-02-28T07:36:12;96777.94;;;0.32;100.00
64610;BME280;51019;46.090;6.350;2023-02-28T07:38:41;96783.97;;;0.14;100.00
64610;BME280;51019;46.090;6.350;2023-02-28T07:41:10;96764.63;;;0.23;100.00
64610;BME280;51019;46.090;6.350;2023-02-28T07:43:37;96773.06;;;0.26;100.00
64610;BME280;51019;46.090;6.350;2023-02-28T07:46:07;96777.31;;;0.27;100.00
64610;BME280;51019;46.090;6.350;2023-02-28T07:48:36;96777.41;;;0.43;100.00
64610;BME280;51019;46.090;6.350;2023-02-28T07:51:05;96771.19;;;0.47;98.93
64610;BME280;51019;46.090;6.350;2023-02-28T07:53:35;96757.16;;;0.53;98.03
64610;BME280;51019;46.090;6.350;2023-02-28T07:56:03;96776.78;;;0.72;97.82
64610;BME280;51019;46.090;6.350;2023-02-28T07:58:31;96780.72;;;0.80;96.28
64610;BME280;51019;46.090;6.350;2023-02-28T08:01:05;96773.16;;;0.59;97.50
64610;BME280;51019;46.090;6.350;2023-02-28T08:03:34;96780.59;;;0.65;96.64
64610;BME280;51019;46.090;6.350;2023-02-28T08:06:04;96777.59;;;1.07;92.67
64610;BME280;51019;46.090;6.350;2023-02-28T08:08:35;96778.03;;;1.16;91.81
64610;BME280;51019;46.090;6.350;2023-02-28T08:11:03;96784.06;;;0.82;92.87
64610;BME280;51019;46.090;6.350;2023-02-28T08:13:31;96775.16;;;1.04;92.59
64610;BME280;51019;46.090;6.350;2023-02-28T08:16:01;96769.19;;;0.87;92.81
64610;BME280;51019;46.090;6.350;2023-02-28T08:18:29;96781.97;;;0.90;92.34
64610;BME280;51019;46.090;6.350;2023-02-28T08:20:57;96782.13;;;1.20;91.37
64610;BME280;51019;46.090;6.350;2023-02-28T08:23:25;96781.13;;;1.22;90.29
64610;BME280;51019;46.090;6.350;2023-02-28T08:26:01;96762.19;;;1.06;91.24
64610;BME280;51019;46.090;6.350;2023-02-28T08:28:29;96779.88;;;1.47;89.43
64610;BME280;51019;46.090;6.350;2023-02-28T08:30:59;96786.09;;;1.58;89.05
64610;BME280;51019;46.090;6.350;2023-02-28T08:33:27;96783.44;;;1.60;88.43
64610;BME280;51019;46.090;6.350;2023-02-28T08:35:55;96784.47;;;1.57;88.19
64610;BME280;51019;46.090;6.350;2023-02-28T08:38:23;96781.03;;;1.57;87.64
64610;BME280;51019;46.090;6.350;2023-02-28T08:40:57;96761.59;;;1.81;87.36
64610;BME280;51019;46.090;6.350;2023-02-28T08:43:27;96783.22;;;1.96;85.77
64610;BME280;51019;46.090;6.350;2023-02-28T08:45:55;96765.94;;;1.16;88.39
64610;BME280;51019;46.090;6.350;2023-02-28T08:48:23;96745.72;;;1.24;88.23
64610;BME280;51019;46.090;6.350;2023-02-28T08:50:55;96777.69;;;1.55;88.91
64610;BME280;51019;46.090;6.350;2023-02-28T08:53:24;96779.56;;;1.68;87.40
64610;BME280;51019;46.090;6.350;2023-02-28T08:55:58;96777.97;;;1.66;86.72
64610;BME280;51019;46.090;6.350;2023-02-28T08:58:28;96763.88;;;1.56;87.14
64610;BME280;51019;46.090;6.350;2023-02-28T09:00:56;96784.31;;;1.76;87.05
64610;BME280;51019;46.090;6.350;2023-02-28T09:03:24;96784.22;;;1.77;85.57
64610;BME280;51019;46.090;6.350;2023-02-28T09:05:54;96783.13;;;1.66;85.25
64610;BME280;51019;46.090;6.350;2023-02-28T09:08:23;96751.03;;;1.86;84.44
64610;BME280;51019;46.090;6.350;2023-02-28T09:10:51;96752.94;;;1.98;83.83
64610;BME280;51019;46.090;6.350;2023-02-28T09:13:20;96790.13;;;2.11;83.56
64610;BME280;51019;46.090;6.350;2023-02-28T09:15:52;96769.53;;;2.09;83.37
64610;BME280;51019;46.090;6.350;2023-02-28T09:18:20;96790.78;;;2.14;82.69
64610;BME280;51019;46.090;6.350;2023-02-28T09:20:47;96791.38;;;2.19;81.75
64610;BME280;51019;46.090;6.350;2023-02-28T09:23:16;96790.63;;;1.86;83.66
64610;BME280;51019;46.090;6.350;2023-02-28T09:25:47;96792.97;;;1.75;85.74
64610;BME280;51019;46.090;6.350;2023-02-28T09:28:16;96794.88;;;2.18;82.89
64610;BME280;51019;46.090;6.350;2023-02-28T09:30:45;96792.59;;;2.28;81.60
64610;BME280;51019;46.090;6.350;2023-02-28T09:33:16;96799.13;;;2.19;81.66
64610;BME280;51019;46.090;6.350;2023-02-28T09:35:47;96800.75;;;2.52;80.15
64610;BME280;51019;46.090;6.350;2023-02-28T09:38:16;96780.69;;;1.94;81.49
64610;BME280;51019;46.090;6.350;2023-02-28T09:40:48;96803.78;;;2.29;81.19
64610;BME280;51019;46.090;6.350;2023-02-28T09:43:20;96805.25;;;2.48;80.13
64610;BME280;51019;46.090;6.350;2023-02-28T09:45:52;96802.84;;;3.19;76.67
64610;BME280;51019;46.090;6.350;2023-02-28T09:48:28;96805.59;;;2.58;79.15
64610;BME280;51019;46.090;6.350;2023-02-28T09:51:02;96788.38;;;2.87;77.79
64610;BME280;51019;46.090;6.350;2023-02-28T09:53:32;96793.34;;;2.76;76.58
64610;BME280;51019;46.090;6.350;2023-02-28T09:56:04;96782.53;;;2.83;74.33
64610;BME280;51019;46.090;6.350;2023-02-28T09:58:37;96798.31;;;3.65;73.35
64610;BME280;51019;46.090;6.350;2023-02-28T10:01:12;96790.31;;;3.97;70.84
64610;BME280;51019;46.090;6.350;2023-02-28T10:03:50;96799.53;;;4.15;68.90
64610;BME280;51019;46.090;6.350;2023-02-28T10:06:23;96799.75;;;3.98;67.11
64610;BME280;51019;46.090;6.350;2023-02-28T10:08:59;96791.28;;;3.82;68.72
64610;BME280;51019;46.090;6.350;2023-02-28T10:11:29;96804.31;;;3.09;72.68
64610;BME280;51019;46.090;6.350;2023-02-28T10:14:02;96798.22;;;3.53;71.05
64610;BME280;51019;46.090;6.350;2023-02-28T10:16:38;96766.94;;;3.70;68.84
64610;BME280;51019;46.090;6.350;2023-02-28T10:19:16;96803.03;;;3.73;68.07
64610;BME280;51019;46.090;6.350;2023-02-28T10:21:55;96807.00;;;3.79;68.70
64610;BME280;51019;46.090;6.350;2023-02-28T10:24:29;96808.56;;;3.95;68.24
64610;BME280;51019;46.090;6.350;2023-02-28T10:27:01;96789.41;;;3.84;69.26
64610;BME280;51019;46.090;6.350;2023-02-28T10:29:35;96794.22;;;3.90;67.01
64610;BME280;51019;46.090;6.350;2023-02-28T10:32:05;96798.31;;;3.94;66.92
64610;BME280;51019;46.090;6.350;2023-02-28T10:34:35;96801.16;;;4.04;67.02
64610;BME280;51019;46.090;6.350;2023-02-28T10:37:03;96801.06;;;3.91;68.79
64610;BME280;51019;46.090;6.350;2023-02-28T10:39:37;96803.41;;;3.39;70.26
64610;BME280;51019;46.090;6.350;2023-02-28T10:42:05;96791.19;;;3.69;72.01
64610;BME280;51019;46.090;6.350;2023-02-28T10:44:45;96797.22;;;3.55;73.18
64610;BME280;51019;46.090;6.350;2023-02-28T10:47:16;96800.00;;;3.52;74.06
64610;BME280;51019;46.090;6.350;2023-02-28T10:49:50;96806.38;;;3.47;74.05
64610;BME280;51019;46.090;6.350;2023-02-28T10:52:32;96813.34;;;3.60;74.10
64610;BME280;51019;46.090;6.350;2023-02-28T10:55:15;96804.81;;;3.58;74.36
64610;BME280;51019;46.090;6.350;2023-02-28T10:57:42;96810.09;;;3.43;74.47
64610;BME280;51019;46.090;6.350;2023-02-28T11:00:15;96811.66;;;3.45;75.14
64610;BME280;51019;46.090;6.350;2023-02-28T11:02:45;96807.22;;;3.47;75.73
64610;BME280;51019;46.090;6.350;2023-02-28T11:05:28;96807.34;;;4.01;74.21
64610;BME280;51019;46.090;6.350;2023-02-28T11:08:02;96791.81;;;4.28;71.24
64610;BME280;51019;46.090;6.350;2023-02-28T11:10:32;96799.41;;;5.23;68.49
64610;BME280;51019;46.090;6.350;2023-02-28T11:13:03;96791.09;;;5.18;67.64
64610;BME280;51019;46.090;6.350;2023-02-28T11:15:33;96799.19;;;5.38;65.98
64610;BME280;51019;46.090;6.350;2023-02-28T11:18:06;96794.19;;;7.05;62.55
64610;BME280;51019;46.090;6.350;2023-02-28T11:20:48;96786.97;;;7.09;61.05
64610;BME280;51019;46.090;6.350;2023-02-28T11:23:16;96791.78;;;7.71;59.99
64610;BME280;51019;46.090;6.350;2023-02-28T11:25:51;96787.41;;;7.60;58.31
64610;BME280;51019;46.090;6.350;2023-02-28T11:28:28;96789.63;;;7.31;59.93
64610;BME280;51019;46.090;6.350;2023-02-28T11:31:03;96785.06;;;6.65;58.98
64610;BME280;51019;46.090;6.350;2023-02-28T11:33:32;96786.50;;;6.45;59.85
64610;BME280;51019;46.090;6.350;2023-02-28T11:36:12;96790.34;;;8.22;57.03
64610;BME280;51019;46.090;6.350;2023-02-28T11:38:40;96747.72;;;6.53;60.48
64610;BME280;51019;46.090;6.350;2023-02-28T11:44:21;96768.84;;;5.39;63.86
64610;BME280;51019;46.090;6.350;2023-02-28T11:46:54;96770.06;;;5.33;65.17
64610;BME280;51019;46.090;6.350;2023-02-28T11:49:32;96759.63;;;6.44;61.29
64610;BME280;51019;46.090;6.350;2023-02-28T11:52:15;96768.00;;;5.64;63.47
64610;BME280;51019;46.090;6.350;2023-02-28T11:54:59;96755.22;;;5.23;65.30
64610;BME280;51019;46.090;6.350;2023-02-28T11:57:36;96766.31;;;4.99;67.57
64610;BME280;51019;46.090;6.350;2023-02-28T12:00:15;96745.44;;;4.88;66.62
64610;BME280;51019;46.090;6.350;2023-02-28T12:02:58;96764.78;;;6.33;61.19
64610;BME280;51019;46.090;6.350;2023-02-28T12:05:49;96756.00;;;5.74;63.09
64610;BME280;51019;46.090;6.350;2023-02-28T12:08:40;96771.31;;;5.53;64.49
64610;BME280;51019;46.090;6.350;2023-02-28T12:11:17;96774.66;;;5.17;65.84
64610;BME280;51019;46.090;6.350;2023-02-28T12:14:03;96760.81;;;4.91;66.32
64610;BME280;51019;46.090;6.350;2023-02-28T12:16:44;96765.28;;;4.89;66.94
64610;BME280;51019;46.090;6.350;2023-02-28T12:19:21;96770.88;;;4.70;68.57
64610;BME280;51019;46.090;6.350;2023-02-28T12:27:51;96760.22;;;4.21;69.09
64610;BME280;51019;46.090;6.350;2023-02-28T12:30:23;96760.66;;;4.55;69.32
64610;BME280;51019;46.090;6.350;2023-02-28T12:32:54;96757.81;;;4.85;69.55
64610;BME280;51019;46.090;6.350;2023-02-28T12:35:33;96763.13;;;4.96;67.37
64610;BME280;51019;46.090;6.350;2023-02-28T12:38:04;96745.44;;;5.01;66.29
64610;BME280;51019;46.090;6.350;2023-02-28T12:40:43;96757.41;;;5.16;65.81
64610;BME280;51019;46.090;6.350;2023-02-28T12:43:16;96751.09;;;5.07;66.85
64610;BME280;51019;46.090;6.350;2023-02-28T12:45:48;96750.22;;;5.20;64.76
64610;BME280;51019;46.090;6.350;2023-02-28T12:48:21;96733.78;;;5.32;63.45
64610;BME280;51019;46.090;6.350;2023-02-28T12:50:51;96740.28;;;5.88;64.35
64610;BME280;51019;46.090;6.350;2023-02-28T12:53:24;96747.34;;;6.23;63.82
64610;BME280;51019;46.090;6.350;2023-02-28T12:56:02;96739.34;;;6.61;61.44
64610;BME280;51019;46.090;6.350;2023-02-28T12:58:39;96729.88;;;5.88;60.81
64610;BME280;51019;46.090;6.350;2023-02-28T13:01:35;96732.00;;;5.58;62.52
64610;BME280;51019;46.090;6.350;2023-02-28T13:04:33;96729.31;;;5.46;63.58
64610;BME280;51019;46.090;6.350;2023-02-28T13:07:34;96728.94;;;5.27;62.84
64610;BME280;51019;46.090;6.350;2023-02-28T13:10:07;96734.50;;;5.59;62.73
64610;BME280;51019;46.090;6.350;2023-02-28T13:12:47;96727.00;;;5.55;63.39
64610;BME280;51019;46.090;6.350;2023-02-28T13:15:19;96723.56;;;5.67;63.86
64610;BME280;51019;46.090;6.350;2023-02-28T13:17:51;96726.13;;;5.79;62.14
64610;BME280;51019;46.090;6.350;2023-02-28T13:20:28;96726.44;;;5.38;63.24
64610;BME280;51019;46.090;6.350;2023-02-28T13:22:57;96723.09;;;5.49;62.74
64610;BME280;51019;46.090;6.350;2023-02-28T13:25:53;96728.94;;;5.27;63.39
64610;BME280;51019;46.090;6.350;2023-02-28T13:31:32;96732.81;;;5.71;64.27
64610;BME280;51019;46.090;6.350;2023-02-28T13:34:13;96720.69;;;5.46;62.81
64610;BME280;51019;46.090;6.350;2023-02-28T13:36:41;96726.81;;;5.58;62.39
64610;BME280;51019;46.090;6.350;2023-02-28T13:42:33;96730.75;;;5.63;62.47
64610;BME280;51019;46.090;6.350;2023-02-28T13:45:23;96717.78;;;5.51;62.83
64610;BME280;51019;46.090;6.350;2023-02-28T13:47:56;96726.84;;;5.32;62.86
64610;BME280;51019;46.090;6.350;2023-02-28T13:53:29;96719.34;;;5.90;60.98
64610;BME280;51019;46.090;6.350;2023-02-28T13:56:09;96729.06;;;5.75;61.56
64610;BME280;51019;46.090;6.350;2023-02-28T13:58:43;96723.13;;;5.73;62.28
64610;BME280;51019;46.090;6.350;2023-02-28T14:01:42;96727.41;;;5.74;63.13
64610;BME280;51019;46.090;6.350;2023-02-28T14:04:48;96732.22;;;5.42;62.62
64610;BME280;51019;46.090;6.350;2023-02-28T14:07:20;96727.56;;;5.47;62.73
64610;BME280;51019;46.090;6.350;2023-02-28T14:09:56;96706.09;;;5.07;63.47
64610;BME280;51019;46.090;6.350;2023-02-28T14:13:02;96709.81;;;5.16;64.07
64610;BME280;51019;46.090;6.350;2023-02-28T14:15:39;96721.97;;;5.40;64.38
64610;BME280;51019;46.090;6.350;2023-02-28T14:18:25;96721.03;;;5.41;63.35
64610;BME280;51019;46.090;6.350;2023-02-28T14:27:11;96715.00;;;5.77;61.47
64610;BME280;51019;46.090;6.350;2023-02-28T14:30:03;96708.06;;;5.65;61.33
64610;BME280;51019;46.090;6.350;2023-02-28T14:32:40;96703.22;;;5.48;60.78
64610;BME280;51019;46.090;6.350;2023-02-28T14:35:20;96712.28;;;5.79;62.12
64610;BME280;51019;46.090;6.350;2023-02-28T14:37:51;96694.16;;;5.54;60.99
64610;BME280;51019;46.090;6.350;2023-02-28T14:40:25;96711.03;;;5.23;63.21
64610;BME280;51019;46.090;6.350;2023-02-28T14:42:56;96712.47;;;5.52;62.07
64610;BME280;51019;46.090;6.350;2023-02-28T14:45:27;96716.81;;;5.64;62.24
64610;BME280;51019;46.090;6.350;2023-02-28T14:47:57;96712.47;;;5.52;62.17